PBFO2: Black Fork Below Big Creek Nr Page, OK
Data processed at Sun 19Mar2023 04:25 GMT
All information presented herein is the property of the government of the United States of America and may be revised or deleted at any time without prior notice.
Dissemination of this information without the expressed written consent of the Public Affairs Office, Tulsa District U.S. Army Corps of Engineers is strictly prohibited.
These data are gathered electronically and, as presented, have not undergone any form of quality control. These data are not guaranteed to be valid or correct.
Go to home page.
Go to station list.
Downstream station:
Previous Day
Next Day
Current Day
SHEF ID: PBFO2 Black Fork below Big Creek nr Pa
STATION TYPE:
PRECIP STAGE RIV-FLOW
in ft cfs
Ccp-Rev Ccp-Rev Ccp-Rev
(US/Central)
03/18 00:00 0.00 6.92 496
03/18 01:00 0.00 6.88 481
03/18 02:00 0.00 6.85 470
03/18 03:00 0.00 6.82 459
03/18 04:00 0.00 6.80 452
03/18 05:00 0.00 6.77 441
03/18 06:00 0.00 6.74 430
03/18 07:00 0.00 6.72 423
03/18 08:00 0.00 6.70 417
03/18 09:00 0.00 6.67 406
03/18 10:00 0.00 6.64 396
03/18 11:00 0.02 6.62 390
03/18 12:00 0.07 6.60 383
03/18 13:00 0.01 6.58 377
03/18 14:00 0.00 6.55 367
03/18 15:00 0.00 6.53 361
03/18 16:00 0.00 6.50 352
03/18 17:00 0.00 6.48 346
03/18 18:00 0.00 6.46 340
03/18 19:00 0.00 6.44 334
03/18 20:00 0.00 6.42 328
03/18 21:00 0.00 6.40 322
03/18 22:00 0.00 6.38 316
03/18 23:00 0.00 6.37 313